Time;durP1;ratioP1;P1;durP2;ratioP2;P2;SDS_P1;SDS_P2;PMS_P1;PMS_P2;Temp;Humidity;BMP_temperature;BMP_pressure;BME280_temperature;BME280_humidity;BME280_pressure;Samples;Min_cycle;Max_cycle;Signal;HPM_P1;HPM_P2
2023/05/06 00:04:10;;;;;;;5.50;3.90;;;;;;;13.69;51.37;99276.16;223433;217;147536;-63
2023/05/06 00:09:14;;;;;;;7.80;4.40;;;;;;;13.65;51.34;99283.41;223450;183;140299;-65
2023/05/06 00:14:17;;;;;;;6.50;3.90;;;;;;;13.61;51.48;99291.54;223469;183;137067;-64
2023/05/06 00:19:20;;;;;;;6.20;4.40;;;;;;;13.55;51.79;99296.98;223298;183;148053;-66
2023/05/06 00:24:24;;;;;;;7.00;4.40;;;;;;;13.49;51.91;99299.49;223353;183;138400;-63
2023/05/06 00:29:27;;;;;;;6.70;4.20;;;;;;;13.39;52.21;99293.40;223369;183;137287;-66
2023/05/06 00:34:30;;;;;;;5.40;4.00;;;;;;;13.32;52.51;99294.13;223459;217;148311;-68
2023/05/06 00:39:33;;;;;;;7.50;4.70;;;;;;;13.25;52.84;99291.71;223383;183;138428;-63
2023/05/06 00:44:37;;;;;;;7.30;4.40;;;;;;;13.21;52.59;99283.05;223336;184;137221;-62
2023/05/06 00:49:41;;;;;;;6.30;4.30;;;;;;;13.19;52.54;99281.94;223437;183;148538;-64
2023/05/06 00:54:44;;;;;;;7.70;4.30;;;;;;;13.19;52.65;99271.77;223366;184;139606;-64
2023/05/06 00:59:47;;;;;;;7.20;4.30;;;;;;;13.16;52.75;99259.86;223401;184;137120;-68
2023/05/06 01:04:50;;;;;;;8.50;4.10;;;;;;;13.13;52.69;99265.44;223477;182;149994;-66
2023/05/06 01:10:12;;;;;;;6.60;4.20;;;;;;;13.09;52.88;99267.83;223341;206;138661;-68
2023/05/06 01:15:45;;;;;;;7.20;4.50;;;;;;;13.07;53.08;99266.77;223493;186;136472;-65
2023/05/06 01:25:32;;;;;;;7.40;4.40;;;;;;;13.01;53.20;99262.67;221477;193;665761;-75
2023/05/06 01:30:48;;;;;;;6.10;4.00;;;;;;;12.94;53.40;99266.73;223691;183;135989;-73
2023/05/06 01:36:01;;;;;;;5.60;3.90;;;;;;;12.91;53.31;99261.05;223530;213;143673;-74
2023/05/06 01:41:06;;;;;;;5.40;3.30;;;;;;;12.85;53.54;99253.28;223115;184;138254;-76
2023/05/06 01:46:14;;;;;;;8.20;4.20;;;;;;;12.78;53.67;99254.98;223425;205;138021;-76
2023/05/06 01:51:20;;;;;;;6.10;4.00;;;;;;;12.72;53.91;99254.02;223580;186;143510;-76
2023/05/06 01:56:25;;;;;;;8.50;4.40;;;;;;;12.71;54.06;99253.14;223641;182;138670;-76
2023/05/06 02:01:29;;;;;;;6.50;3.50;;;;;;;12.67;54.04;99255.19;223695;183;136165;-74
2023/05/06 02:06:33;;;;;;;6.70;3.80;;;;;;;12.64;54.14;99256.81;223577;204;143290;-75
2023/05/06 02:11:36;;;;;;;7.00;4.10;;;;;;;12.61;54.16;99259.53;223474;193;139790;-75
2023/05/06 02:16:41;;;;;;;6.00;3.50;;;;;;;12.56;54.47;99252.89;223566;183;137465;-75
2023/05/06 02:21:45;;;;;;;5.20;3.60;;;;;;;12.54;54.61;99251.81;223524;215;145346;-76
2023/05/06 02:26:48;;;;;;;5.40;3.50;;;;;;;12.52;54.65;99254.76;223559;183;139349;-74
2023/05/06 02:31:52;;;;;;;4.80;3.20;;;;;;;12.52;54.80;99256.17;223580;183;137328;-75
2023/05/06 02:36:56;;;;;;;8.50;3.90;;;;;;;12.50;54.89;99246.89;223503;209;145682;-75
2023/05/06 02:42:01;;;;;;;5.80;3.60;;;;;;;12.46;54.90;99242.88;222908;183;138772;-75
2023/05/06 02:47:04;;;;;;;7.20;3.50;;;;;;;12.42;55.24;99239.41;223549;216;151991;-77
2023/05/06 02:52:08;;;;;;;4.80;3.50;;;;;;;12.38;55.35;99230.45;223622;184;145072;-76
2023/05/06 02:57:11;;;;;;;74.40;54.80;;;;;;;12.38;55.74;99231.52;223471;196;138545;-76
2023/05/06 03:02:15;;;;;;;73.90;60.30;;;;;;;12.36;55.67;99230.42;223513;183;136909;-76
2023/05/06 03:07:19;;;;;;;7.20;5.40;;;;;;;12.37;55.85;99229.80;223490;185;144915;-78
2023/05/06 03:12:23;;;;;;;9.10;3.70;;;;;;;12.35;55.70;99231.70;223487;183;138943;-78
2023/05/06 03:17:26;;;;;;;6.10;3.50;;;;;;;12.31;55.81;99228.76;223490;216;136076;-78
2023/05/06 03:22:34;;;;;;;6.00;3.80;;;;;;;12.30;55.76;99226.73;223516;182;145349;-76
2023/05/06 03:27:38;;;;;;;5.80;3.70;;;;;;;12.27;56.02;99229.58;223449;206;139358;-75
2023/05/06 03:32:47;;;;;;;6.90;3.50;;;;;;;12.28;56.13;99227.71;223502;191;136524;-75
2023/05/06 03:38:11;;;;;;;8.10;4.00;;;;;;;12.25;56.28;99223.65;223450;193;145752;-75
2023/05/06 03:43:23;;;;;;;5.00;3.50;;;;;;;12.25;56.38;99220.25;223502;194;138969;-74
2023/05/06 03:48:30;;;;;;;;;;;;;;;12.27;56.65;99223.86;223555;193;136188;-75
2023/05/06 03:53:33;;;;;;;5.60;3.60;;;;;;;12.31;56.39;99232.12;222589;204;145596;-76
2023/05/06 03:58:38;;;;;;;4.90;3.90;;;;;;;12.28;56.57;99231.09;223667;181;138527;-76
2023/05/06 04:03:43;;;;;;;6.20;3.90;;;;;;;12.26;56.53;99237.99;223599;181;137599;-77
2023/05/06 04:08:47;;;;;;;5.90;4.00;;;;;;;12.24;56.60;99241.50;223443;193;146026;-76
2023/05/06 04:13:52;;;;;;;6.30;3.80;;;;;;;12.24;56.59;99237.91;223570;182;139163;-76
2023/05/06 04:18:57;;;;;;;7.50;4.00;;;;;;;12.21;56.77;99241.38;223560;193;136600;-77
2023/05/06 04:24:02;;;;;;;9.60;7.90;;;;;;;12.21;57.25;99246.18;223521;183;147312;-75
2023/05/06 04:29:10;;;;;;;7.00;3.70;;;;;;;12.28;56.93;99249.05;223499;204;138116;-76
2023/05/06 04:34:23;;;;;;;6.70;4.20;;;;;;;12.32;56.93;99254.70;223592;208;137212;-77
2023/05/06 04:39:27;;;;;;;5.80;3.90;;;;;;;12.36;57.06;99250.52;223557;216;145335;-77
2023/05/06 04:44:32;;;;;;;8.40;3.70;;;;;;;12.41;57.24;99250.53;223448;195;138376;-76
2023/05/06 04:49:36;;;;;;;7.90;4.20;;;;;;;12.49;57.20;99252.48;223717;191;136338;-77
2023/05/06 05:00:56;;;;;;;6.10;4.10;;;;;;;12.61;56.88;99256.31;223753;214;139786;-77
2023/05/06 05:05:59;;;;;;;6.60;3.90;;;;;;;12.72;56.88;99254.50;223621;215;137292;-77
2023/05/06 05:11:05;;;;;;;7.90;4.00;;;;;;;12.77;56.60;99251.83;223604;215;145422;-77
2023/05/06 05:16:10;;;;;;;5.00;4.10;;;;;;;12.87;56.39;99238.92;223609;182;138446;-76
2023/05/06 05:21:15;;;;;;;5.40;4.30;;;;;;;12.88;56.43;99239.19;223965;182;136589;-78
2023/05/06 05:26:18;;;;;;;7.40;4.30;;;;;;;12.88;56.47;99234.37;223649;203;146048;-77
2023/05/06 05:31:26;;;;;;;6.40;4.00;;;;;;;12.88;56.57;99235.25;223667;191;138868;-77
2023/05/06 05:36:30;;;;;;;6.40;3.60;;;;;;;12.92;56.80;99220.93;223657;186;136561;-78
2023/05/06 05:41:35;;;;;;;8.00;3.60;;;;;;;12.95;56.50;99209.48;223471;186;145754;-78
2023/05/06 05:46:38;;;;;;;6.10;3.60;;;;;;;12.94;56.49;99210.98;223657;182;138514;-77
2023/05/06 05:51:42;;;;;;;7.20;3.70;;;;;;;12.97;56.41;99213.09;223526;186;136522;-77
2023/05/06 05:56:46;;;;;;;9.10;3.90;;;;;;;12.99;56.39;99207.04;221894;182;146073;-81
2023/05/06 06:01:50;;;;;;;6.30;4.30;;;;;;;13.06;56.25;99217.66;219798;214;138433;-80
2023/05/06 06:06:56;;;;;;;5.30;3.90;;;;;;;13.17;56.26;99217.39;223735;215;136222;-80
2023/05/06 06:12:00;;;;;;;6.70;4.10;;;;;;;13.29;56.33;99224.05;223730;214;145654;-80
2023/05/06 06:17:05;;;;;;;7.70;4.20;;;;;;;13.40;56.11;99212.94;223723;186;138234;-78
2023/05/06 06:22:09;;;;;;;6.50;4.10;;;;;;;13.49;55.91;99207.71;223736;193;139438;-77
2023/05/06 06:27:14;;;;;;;9.30;4.30;;;;;;;13.53;55.85;99207.05;223590;193;145597;-77
2023/05/06 06:32:18;;;;;;;7.90;4.10;;;;;;;13.55;55.47;99203.54;223773;214;139132;-80
2023/05/06 06:37:22;;;;;;;4.90;3.30;;;;;;;13.61;55.33;99201.72;223554;195;137413;-80
2023/05/06 06:42:25;;;;;;;5.50;3.90;;;;;;;13.66;54.96;99207.04;223687;196;145691;-80
2023/05/06 06:47:42;;;;;;;7.60;4.10;;;;;;;13.75;54.78;99200.67;223762;193;138778;-80
2023/05/06 06:52:48;;;;;;;8.00;4.30;;;;;;;13.90;54.64;99188.32;219322;203;137508;-82
2023/05/06 06:57:51;;;;;;;11.40;4.10;;;;;;;13.98;54.24;99180.80;223839;183;145928;-81
2023/05/06 07:02:54;;;;;;;6.50;3.90;;;;;;;14.08;54.54;99182.52;223700;182;138357;-80
2023/05/06 07:07:58;;;;;;;6.20;4.00;;;;;;;14.20;54.29;99188.95;223811;214;136449;-79
2023/05/06 07:13:02;;;;;;;7.20;4.10;;;;;;;14.22;54.33;99183.97;223858;191;147583;-79
2023/05/06 07:18:06;;;;;;;9.30;4.10;;;;;;;14.28;53.99;99178.20;223487;182;138295;-64
2023/05/06 07:23:09;;;;;;;7.80;3.90;;;;;;;14.27;53.86;99184.73;223591;182;137416;-65
2023/05/06 07:28:12;;;;;;;5.60;3.90;;;;;;;14.27;54.21;99179.14;223485;216;145045;-66
2023/05/06 07:33:15;;;;;;;7.20;4.30;;;;;;;14.37;54.17;99180.89;223531;182;138839;-68
2023/05/06 07:38:22;;;;;;;7.90;3.60;;;;;;;14.41;54.30;99174.31;223601;205;137307;-65
2023/05/06 07:43:25;;;;;;;9.20;4.20;;;;;;;14.48;54.20;99165.97;223500;216;145660;-66
2023/05/06 07:48:29;;;;;;;9.70;4.10;;;;;;;14.60;54.33;99157.44;223533;216;139912;-65
2023/05/06 07:53:33;;;;;;;8.00;4.00;;;;;;;14.69;53.85;99154.26;223540;209;136495;-64
2023/05/06 07:58:36;;;;;;;5.70;3.50;;;;;;;14.79;54.05;99146.48;223577;183;145219;-65
2023/05/06 08:03:39;;;;;;;8.00;3.90;;;;;;;14.93;54.07;99141.80;223539;184;138427;-69
2023/05/06 08:08:42;;;;;;;6.70;3.80;;;;;;;15.07;54.23;99134.80;223521;203;136272;-65
2023/05/06 08:13:46;;;;;;;9.60;4.30;;;;;;;15.20;54.09;99127.16;223509;205;145862;-62
2023/05/06 08:18:49;;;;;;;7.30;4.60;;;;;;;15.29;53.88;99118.58;223512;216;141000;-63
2023/05/06 08:23:52;;;;;;;8.10;4.50;;;;;;;15.36;53.87;99116.20;223567;193;137068;-66
2023/05/06 08:28:56;;;;;;;7.00;3.70;;;;;;;15.43;53.93;99105.89;223554;216;145363;-66
2023/05/06 08:34:02;;;;;;;28.20;19.80;;;;;;;15.53;53.47;99107.15;223490;216;138443;-65
2023/05/06 08:39:10;;;;;;;10.60;5.90;;;;;;;15.64;53.45;99096.77;223655;183;138608;-67
2023/05/06 08:44:17;;;;;;;9.50;4.30;;;;;;;15.77;53.85;99092.89;223502;213;145303;-66
2023/05/06 08:49:20;;;;;;;7.80;4.10;;;;;;;15.95;53.95;99089.41;223614;184;138405;-66
2023/05/06 08:54:28;;;;;;;8.40;4.80;;;;;;;16.11;53.86;99092.34;223516;182;137306;-64
2023/05/06 08:59:38;;;;;;;6.80;4.30;;;;;;;16.25;53.86;99099.27;223487;216;145523;-65
2023/05/06 09:04:42;;;;;;;9.40;4.50;;;;;;;16.31;53.67;99095.34;223635;182;138356;-65
2023/05/06 09:09:45;;;;;;;6.60;4.40;;;;;;;16.45;53.80;99087.54;223430;216;136824;-68
2023/05/06 09:14:50;;;;;;;64.60;42.90;;;;;;;16.63;53.72;99079.38;223599;193;145769;-68
2023/05/06 09:19:58;;;;;;;32.10;21.40;;;;;;;17.30;56.53;99063.84;223495;183;138672;-67
2023/05/06 09:25:02;;;;;;;30.50;11.00;;;;;;;18.27;54.57;99054.05;223406;186;137538;-65
2023/05/06 09:30:10;;;;;;;20.40;7.60;;;;;;;18.77;52.04;99048.63;223498;205;146077;-66
2023/05/06 09:35:14;;;;;;;12.10;5.10;;;;;;;19.00;50.95;99040.42;223541;196;139133;-69
2023/05/06 09:40:17;;;;;;;6.60;4.50;;;;;;;19.23;49.54;99032.68;223607;193;137440;-67
2023/05/06 09:45:21;;;;;;;8.50;3.90;;;;;;;19.31;48.66;99022.30;223609;184;145579;-68
2023/05/06 09:50:25;;;;;;;4.50;3.30;;;;;;;19.38;47.55;99010.98;223592;183;138976;-68
2023/05/06 09:55:38;;;;;;;7.10;3.60;;;;;;;19.43;47.11;99001.95;223592;204;137167;-71
2023/05/06 10:00:45;;;;;;;8.40;3.60;;;;;;;19.47;46.74;98988.55;223488;216;147179;-65
2023/05/06 10:05:49;;;;;;;6.20;3.60;;;;;;;19.54;46.73;98976.52;223464;183;138978;-69
2023/05/06 10:10:53;;;;;;;7.40;3.90;;;;;;;19.62;46.89;98965.80;223552;184;137473;-69
2023/05/06 10:16:00;;;;;;;7.80;3.50;;;;;;;19.73;46.72;98955.05;223497;209;146910;-67
2023/05/06 10:21:12;;;;;;;4.50;3.30;;;;;;;19.88;46.33;98945.02;223525;216;138158;-67
2023/05/06 10:26:18;;;;;;;6.10;3.80;;;;;;;19.97;46.25;98936.29;223585;184;136765;-67
2023/05/06 10:31:22;;;;;;;4.70;3.50;;;;;;;20.01;45.89;98915.61;223733;183;147835;-65
2023/05/06 10:36:30;;;;;;;10.20;4.80;;;;;;;19.97;45.66;98901.09;223504;208;138715;-67
2023/05/06 10:41:35;;;;;;;7.20;4.60;;;;;;;19.95;46.07;98899.45;223476;201;137928;-67
2023/05/06 10:47:00;;;;;;;8.40;4.50;;;;;;;19.96;46.47;98891.09;223496;216;147601;-67
2023/05/06 10:52:21;;;;;;;35.80;26.80;;;;;;;19.91;46.71;98888.52;223353;193;138245;-64
2023/05/06 10:57:26;;;;;;;10.00;4.90;;;;;;;19.85;46.74;98893.14;223526;185;138442;-64
2023/05/06 11:02:30;;;;;;;23.00;6.10;;;;;;;19.73;46.91;98904.80;223811;179;147604;-65
2023/05/06 11:07:41;;;;;;;10.70;4.80;;;;;;;19.65;47.63;98902.57;223679;182;138934;-65
2023/05/06 11:12:55;;;;;;;14.00;5.00;;;;;;;19.55;48.26;98918.77;223845;182;138289;-68
2023/05/06 11:18:29;;;;;;;9.20;4.80;;;;;;;19.37;49.84;98937.35;223810;182;148715;-65
2023/05/06 11:23:40;;;;;;;9.70;5.20;;;;;;;19.18;51.39;98954.22;223618;182;139587;-67
2023/05/06 11:28:46;;;;;;;57.20;39.00;;;;;;;18.99;52.57;98983.80;223720;182;140089;-66
2023/05/06 11:33:51;;;;;;;13.70;6.40;;;;;;;18.62;54.65;98998.23;223721;182;147106;-67
2023/05/06 11:38:55;;;;;;;99.60;84.90;;;;;;;18.26;57.01;98997.42;223708;182;138247;-68
2023/05/06 11:43:58;;;;;;;78.10;66.70;;;;;;;17.95;58.43;98987.55;223634;182;138354;-70
2023/05/06 11:49:01;;;;;;;16.20;7.80;;;;;;;17.75;59.59;98973.60;223708;183;147011;-70
2023/05/06 11:54:09;;;;;;;11.10;6.40;;;;;;;17.57;59.92;98972.20;223718;182;138903;-70
2023/05/06 11:59:13;;;;;;;10.90;6.50;;;;;;;17.36;60.48;98974.88;223703;178;138176;-67
2023/05/06 12:04:16;;;;;;;13.70;7.10;;;;;;;17.16;61.18;98985.80;223693;182;147333;-67
2023/05/06 12:09:21;;;;;;;9.10;7.20;;;;;;;16.94;62.08;98994.77;223702;181;139277;-69
2023/05/06 12:14:24;;;;;;;14.30;6.90;;;;;;;16.75;63.32;99003.20;223785;182;137128;-69
2023/05/06 12:19:28;;;;;;;12.10;6.30;;;;;;;16.65;64.34;99015.07;223660;182;148823;-66
2023/05/06 12:24:31;;;;;;;10.80;6.40;;;;;;;16.62;64.74;99014.58;223680;182;139757;-67
2023/05/06 12:29:35;;;;;;;12.10;6.10;;;;;;;16.62;64.88;99002.38;223566;182;136929;-67
2023/05/06 12:34:41;;;;;;;111.90;90.40;;;;;;;16.62;65.24;98994.36;223648;182;146434;-69
2023/05/06 12:39:44;;;;;;;15.50;8.30;;;;;;;16.60;65.42;98978.58;223633;182;138362;-68
2023/05/06 12:45:14;;;;;;;11.50;7.60;;;;;;;16.54;66.20;98959.37;223698;182;138480;-66
2023/05/06 12:50:36;;;;;;;13.10;7.60;;;;;;;16.50;66.71;98948.88;223678;181;147658;-70
2023/05/06 12:55:44;;;;;;;13.70;7.80;;;;;;;16.44;67.12;98948.66;223689;181;139793;-66
2023/05/06 13:00:47;;;;;;;10.70;6.60;;;;;;;16.39;67.40;98945.89;223563;182;136966;-69
2023/05/06 13:05:52;;;;;;;9.50;6.40;;;;;;;16.35;67.32;98955.02;223627;182;147189;-65
2023/05/06 13:10:55;;;;;;;11.50;7.10;;;;;;;16.39;67.30;98954.30;223671;182;139108;-68
2023/05/06 13:16:01;;;;;;;10.60;7.40;;;;;;;16.38;67.79;98952.98;223620;183;137210;-69
2023/05/06 13:21:11;;;;;;;146.40;113.70;;;;;;;16.34;68.38;98940.77;223669;182;147460;-69
2023/05/06 13:26:46;;;;;;;12.10;8.20;;;;;;;16.32;68.20;98928.56;223338;183;138522;-68
2023/05/06 13:31:50;;;;;;;11.30;7.30;;;;;;;16.29;68.45;98930.80;223717;182;137672;-66
2023/05/06 13:36:55;;;;;;;10.30;7.70;;;;;;;16.22;68.48;98928.39;223739;182;148241;-67
2023/05/06 13:41:58;;;;;;;37.90;28.50;;;;;;;16.14;68.88;98920.86;223691;182;138931;-66
2023/05/06 13:47:02;;;;;;;11.20;6.70;;;;;;;16.13;69.07;98903.27;223737;182;138237;-67
2023/05/06 13:52:05;;;;;;;9.80;5.70;;;;;;;16.09;69.24;98944.83;223713;182;147412;-67
2023/05/06 13:57:10;;;;;;;6.40;5.80;;;;;;;16.07;68.90;98923.79;223686;181;138323;-67
2023/05/06 14:02:13;;;;;;;10.80;7.40;;;;;;;16.06;69.22;98931.14;223860;181;137278;-69
2023/05/06 14:07:16;;;;;;;19.30;7.60;;;;;;;16.08;69.29;98921.55;223611;182;147834;-68
2023/05/06 14:12:21;;;;;;;12.10;7.00;;;;;;;16.08;69.17;98929.23;223664;182;139120;-66
2023/05/06 14:17:24;;;;;;;9.80;6.60;;;;;;;16.03;69.65;98941.68;223695;182;137737;-69
2023/05/06 14:22:33;;;;;;;10.80;7.30;;;;;;;15.98;69.88;98939.54;223729;181;148644;-69
2023/05/06 14:27:36;;;;;;;107.40;81.30;;;;;;;15.95;70.00;98932.66;223704;182;138423;-68
2023/05/06 14:32:39;;;;;;;128.50;97.30;;;;;;;15.97;70.40;98933.96;223747;182;137681;-66
2023/05/06 14:37:43;;;;;;;13.60;9.40;;;;;;;16.04;70.90;98926.35;223706;182;147098;-68
2023/05/06 14:42:46;;;;;;;17.70;9.40;;;;;;;16.02;70.82;98926.52;223648;181;138467;-69
2023/05/06 14:47:50;;;;;;;12.10;8.20;;;;;;;15.97;71.06;98922.28;223584;182;137633;-69
2023/05/06 14:52:53;;;;;;;11.20;8.70;;;;;;;15.97;71.33;98924.48;223671;181;147700;-67
2023/05/06 14:57:56;;;;;;;13.60;8.60;;;;;;;16.00;71.46;98924.36;223790;182;139045;-68
2023/05/06 15:03:01;;;;;;;11.70;8.50;;;;;;;16.16;71.34;98922.11;223728;182;137117;-69
2023/05/06 15:08:04;;;;;;;13.80;8.80;;;;;;;16.36;71.33;98922.52;223674;181;147654;-69
2023/05/06 15:13:07;;;;;;;11.10;8.70;;;;;;;16.56;70.73;98915.34;223729;182;139206;-71
2023/05/06 15:18:12;;;;;;;14.50;11.70;;;;;;;16.62;70.10;98915.86;223835;182;136604;-68
2023/05/06 15:23:15;;;;;;;20.00;14.90;;;;;;;16.69;70.15;98920.08;223788;182;147065;-68
2023/05/06 15:31:46;;;;;;;13.10;11.60;;;;;;;16.99;69.51;98916.14;219564;192;666444;-72
2023/05/06 15:36:52;;;;;;;14.80;12.10;;;;;;;17.04;68.26;98913.60;223299;186;138347;-66
2023/05/06 15:41:57;;;;;;;18.50;12.40;;;;;;;17.00;67.60;98910.70;223336;187;144109;-69
2023/05/06 15:47:00;;;;;;;;;;;;;;;16.93;67.84;98909.24;223697;183;138895;-67
2023/05/06 15:52:03;;;;;;;18.20;14.10;;;;;;;16.85;68.06;98907.39;223776;183;127288;-67
2023/05/06 15:57:06;;;;;;;17.30;13.10;;;;;;;17.05;68.53;98901.52;223735;182;143502;-68
2023/05/06 16:02:09;;;;;;;14.70;12.00;;;;;;;17.28;67.65;98896.73;223751;183;139557;-67
2023/05/06 16:07:15;;;;;;;17.10;13.60;;;;;;;17.42;67.27;98896.11;223701;183;139974;-69
2023/05/06 16:12:18;;;;;;;184.60;126.00;;;;;;;17.73;66.54;98894.48;223822;183;143581;-70
2023/05/06 16:17:21;;;;;;;18.70;14.40;;;;;;;18.16;65.15;98899.59;223630;183;139471;-65
2023/05/06 16:22:25;;;;;;;27.80;23.30;;;;;;;18.12;64.44;98899.20;223673;182;137974;-67
2023/05/06 16:27:28;;;;;;;23.60;19.20;;;;;;;17.96;64.09;98900.04;223578;183;147278;-65
2023/05/06 16:32:37;;;;;;;22.70;17.40;;;;;;;17.74;64.43;98905.48;223665;183;139253;-65
2023/05/06 16:37:42;;;;;;;24.80;18.60;;;;;;;17.66;64.37;98910.92;223603;182;136803;-66
2023/05/06 16:42:49;;;;;;;20.70;16.00;;;;;;;17.58;65.00;98907.88;223576;184;145160;-69
2023/05/06 16:47:52;;;;;;;23.60;20.10;;;;;;;17.48;64.12;98911.16;223590;183;140038;-66
2023/05/06 16:52:56;;;;;;;20.00;15.80;;;;;;;17.27;63.81;98918.46;223591;183;137044;-69
2023/05/06 16:58:05;;;;;;;20.30;15.70;;;;;;;17.15;64.18;98929.09;223594;183;145847;-70
2023/05/06 17:03:08;;;;;;;21.60;16.60;;;;;;;17.05;64.31;98928.20;223600;183;138385;-69
2023/05/06 17:08:12;;;;;;;20.70;17.60;;;;;;;16.94;64.51;98926.81;223624;183;136665;-68
2023/05/06 17:13:15;;;;;;;21.50;17.30;;;;;;;16.82;64.81;98926.88;223572;183;146057;-70
2023/05/06 17:18:18;;;;;;;112.40;94.70;;;;;;;16.74;64.87;98929.52;223558;182;140019;-70
2023/05/06 17:23:21;;;;;;;48.60;38.30;;;;;;;16.69;65.25;98927.61;223697;182;138209;-67
2023/05/06 17:28:24;;;;;;;23.00;19.40;;;;;;;16.67;65.14;98926.73;223685;182;145762;-66
2023/05/06 17:33:27;;;;;;;26.00;18.50;;;;;;;16.58;65.31;98934.16;223560;182;138539;-67
2023/05/06 17:38:30;;;;;;;23.30;19.00;;;;;;;16.51;65.60;98934.61;223688;182;137954;-68
2023/05/06 17:43:33;;;;;;;26.10;19.30;;;;;;;16.50;65.88;98932.17;223654;182;146381;-66
2023/05/06 17:48:36;;;;;;;26.80;20.50;;;;;;;16.54;65.65;98936.48;223677;181;138521;-67
2023/05/06 17:53:41;;;;;;;26.10;20.80;;;;;;;16.52;65.55;98936.68;223793;181;137218;-68
2023/05/06 17:59:01;;;;;;;22.50;19.70;;;;;;;16.49;65.62;98943.39;223718;182;146024;-70
2023/05/06 18:04:04;;;;;;;27.40;21.30;;;;;;;16.38;65.87;98951.38;223677;181;140528;-66
2023/05/06 18:09:09;;;;;;;28.40;21.40;;;;;;;16.26;66.15;98951.29;223678;181;136921;-67
2023/05/06 18:14:12;;;;;;;25.60;21.60;;;;;;;16.10;66.43;98964.45;223687;181;145719;-69
2023/05/06 18:19:15;;;;;;;188.60;146.70;;;;;;;16.01;67.09;98963.98;223723;181;139128;-68
2023/05/06 20:45:29;;;;;;;25.00;19.60;;;;;;;15.20;65.94;99051.91;221387;192;665867;-64
2023/05/06 20:50:36;;;;;;;26.50;19.90;;;;;;;15.10;65.99;99049.31;223398;186;137566;-65
2023/05/06 20:55:41;;;;;;;26.70;21.20;;;;;;;15.04;66.05;99051.95;223308;187;146062;-70
2023/05/06 21:00:45;;;;;;;26.50;20.00;;;;;;;15.00;65.94;99052.81;223774;183;140047;-68
2023/05/06 21:05:48;;;;;;;25.40;19.70;;;;;;;14.95;66.09;99055.88;223790;184;137054;-67
2023/05/06 21:10:51;;;;;;;24.80;19.20;;;;;;;14.94;66.02;99061.03;223723;183;143863;-66
2023/05/06 21:15:55;;;;;;;23.90;17.90;;;;;;;14.90;65.91;99058.41;223779;183;138336;-68
2023/05/06 21:20:58;;;;;;;21.70;16.00;;;;;;;14.87;65.90;99058.45;223576;183;138399;-64
2023/05/06 21:26:02;;;;;;;20.90;16.50;;;;;;;14.89;65.75;99066.14;223613;183;143246;-67
2023/05/06 21:31:05;;;;;;;25.20;17.80;;;;;;;14.93;65.62;99073.60;223904;180;140429;-71
2023/05/06 21:36:08;;;;;;;24.10;18.90;;;;;;;15.01;65.63;99073.42;223927;180;137181;-66
2023/05/06 21:41:11;;;;;;;25.10;19.00;;;;;;;15.00;65.51;99076.71;224106;181;146310;-65
2023/05/06 21:46:16;;;;;;;23.20;18.50;;;;;;;14.96;65.44;99079.26;223786;181;138418;-65
2023/05/06 21:51:20;;;;;;;21.40;17.80;;;;;;;14.91;65.49;99084.09;223775;181;137970;-66
2023/05/06 21:56:23;;;;;;;21.30;16.80;;;;;;;14.88;65.39;99091.43;223848;181;146509;-66
2023/05/06 22:01:26;;;;;;;20.40;16.70;;;;;;;14.85;65.36;99089.54;223681;181;139688;-67
2023/05/06 22:06:30;;;;;;;21.50;16.00;;;;;;;14.84;65.39;99087.52;223683;181;139633;-69
2023/05/06 22:11:33;;;;;;;20.50;15.80;;;;;;;14.82;65.55;99086.04;223732;181;145109;-67
2023/05/06 22:16:36;;;;;;;28.20;17.00;;;;;;;14.90;65.56;99084.73;223764;181;139141;-66
2023/05/06 22:21:40;;;;;;;22.60;16.90;;;;;;;14.90;65.42;99083.76;223685;181;137463;-66
2023/05/06 22:26:43;;;;;;;20.70;16.70;;;;;;;14.92;65.36;99085.81;223765;181;145548;-67
2023/05/06 22:31:46;;;;;;;22.80;17.70;;;;;;;14.82;65.38;99093.50;223799;181;139000;-66
2023/05/06 22:36:49;;;;;;;20.10;16.60;;;;;;;14.78;65.51;99098.48;223833;181;136702;-66
2023/05/06 22:41:56;;;;;;;21.10;16.80;;;;;;;14.69;65.77;99101.52;223846;181;145647;-67
2023/05/06 22:46:59;;;;;;;23.70;16.80;;;;;;;14.64;66.08;99104.58;223782;181;138127;-66
2023/05/06 22:52:03;;;;;;;16.90;12.00;;;;;;;14.59;66.32;99113.52;223852;181;137150;-64
2023/05/06 22:57:06;;;;;;;19.60;12.50;;;;;;;14.47;66.47;99116.42;223848;181;145315;-64
2023/05/06 23:02:09;;;;;;;17.20;13.20;;;;;;;14.39;66.59;99113.83;223776;181;140620;-65
2023/05/06 23:07:12;;;;;;;18.40;12.70;;;;;;;14.33;66.70;99108.52;223748;181;136833;-65
2023/05/06 23:12:15;;;;;;;18.30;12.20;;;;;;;14.28;66.79;99114.85;223795;181;146733;-66
2023/05/06 23:17:18;;;;;;;19.70;11.50;;;;;;;14.19;66.50;99114.96;223755;181;138402;-65
2023/05/06 23:22:21;;;;;;;17.20;10.70;;;;;;;14.09;66.55;99121.23;223828;181;137453;-67
2023/05/06 23:27:24;;;;;;;16.10;10.20;;;;;;;13.99;66.58;99125.41;223733;181;145908;-69
2023/05/06 23:32:28;;;;;;;16.10;10.80;;;;;;;13.87;66.82;99125.95;223731;181;138653;-65
2023/05/06 23:37:31;;;;;;;16.20;10.70;;;;;;;13.77;67.06;99131.55;223734;181;137048;-68
2023/05/06 23:42:34;;;;;;;15.70;9.80;;;;;;;13.73;67.13;99130.37;223733;181;145449;-68
2023/05/06 23:47:37;;;;;;;19.80;10.60;;;;;;;13.73;67.19;99131.06;223813;181;138503;-64
2023/05/06 23:52:41;;;;;;;18.40;11.60;;;;;;;13.70;67.40;99125.41;223801;181;136934;-65
2023/05/06 23:57:45;;;;;;;19.30;9.70;;;;;;;13.71;67.59;99124.64;223774;181;145765;-64
